SBRFSBFN

Guest
Details From SBRF - Recife Intl
To SBFN - Fernando De Noronha
Flight Number -
Tags Generated
Created
Modified
Stats Distance 297 nm / 550 km
Max Altitude 0 ft / 0 m
Waypoints 3
Social Downloads 1
Likes 0
Share VATSIM

Download

Looking for another format? Having issues loading an existing format? Contact us
Advertisement - Login to hide

Notes

Generated

Route

SBRF FNO SBFN

ID Type Via Altitude Latitude Longitude Leg Dist Tot Dist Heading (true) Name
O SBRF APT - 0 ft / 0 m -8.12516˚ -34.92862˚ - 0 nm - -
FNO VOR - 0 ft / 0 m -3.87020˚ -32.42932˚ 295 nm 295 nm 30° / 30° FERNANDO VOR-DME
O SBFN APT - 0 ft / 0 m -3.85435˚ -32.43165˚ 0 nm 296 nm 352° / 352° -

Altitude Profile

Advertisement - Login to hide

Weather


0- 5 10 15 20 25 30 35+ Temperature / ° C

Clouds and Precipitation
Forecast for 2018-05-25 18:00 UTC. Updated 4 hours ago

Ground ~20,000 ft ~40,000 ft Winds

SBRF

Details ICAO SBRF (REC)
Name Recife Intl
Region Brazil
Timezone America/Recife (UTC-3.0)
Stats Elevation 33 ft / 10 m (AMSL)
Location -8.127896° -34.922981°
Runways 2
Magnetic Variation 22.074° W

METAR

SBRF 252100Z 15015KT 9999 SCT023 SCT050 26/20 Q1013

Decode

TAF

TAF SBRF 251600Z 2518/2618 16010KT 8000 SCT020 SCT040 TN24/2607Z TX29/2614Z BECMG 2523/2601 19006KT PROB40 TEMPO 2605/2608 5000 RA BKN015 PROB40 TEMPO 2609/2611 5000 RA BKN015 BECMG 2611/2612 14012KT RMK PEU

Decode

Departure Runways

ID Width Length Bearing (true) Bearing (mag) Surface Threshold Offset Overrun Length
01 98 ft / 30 m 4,979 ft / 1,518 m 304.20° 326.27° Asphalt 300 ft / 91 m 0 ft / 0 m
18 148 ft / 45 m 9,915 ft / 3,022 m 161.91° 183.98° Asphalt 1,225 ft / 373 m 0 ft / 0 m
19 98 ft / 30 m 4,979 ft / 1,518 m 124.20° 146.27° Asphalt 300 ft / 91 m 0 ft / 0 m
36 148 ft / 45 m 9,915 ft / 3,022 m 341.91° 3.98° Asphalt 0 ft / 0 m 350 ft / 107 m

SBFN

Details ICAO SBFN (FEN)
Name Fernando De Noronha
Region Brazil
Timezone America/Noronha (UTC-2.0)
Stats Elevation 180 ft / 55 m (AMSL)
Location -3.854928° -32.423335°
Runways 1
Magnetic Variation 20.019° W

METAR

SBFN 252100Z 00000KT 9999 BKN021 23/23 Q1014

Decode

TAF

TAF SBFN 251600Z 2518/2606 13009KT 7000 SCT010 SCT020 TX27/2518Z TN25/2602Z PROB40 TEMPO 2518/2520 4500 RA BKN014 BECMG 2602/2603 BKN015 RMK PEU

Decode

Destination Runways

ID Width Length Bearing (true) Bearing (mag) Surface Threshold Offset Overrun Length
12 148 ft / 45 m 6,070 ft / 1,850 m 93.99° 114.01° Asphalt 0 ft / 0 m 0 ft / 0 m
30 148 ft / 45 m 6,070 ft / 1,850 m 273.98° 294.00° Asphalt 0 ft / 0 m 0 ft / 0 m

Popular Alternatives